sensor_id;sensor_type;location;lat;lon;timestamp;pressure;altitude;pressure_sealevel;temperature;humidity
20930;BME280;21895;47.072;15.132;2023-04-24T00:01:32;95736.00;;;11.12;83.62
20930;BME280;21895;47.072;15.132;2023-04-24T00:04:00;95726.00;;;11.11;83.31
20930;BME280;21895;47.072;15.132;2023-04-24T00:06:28;95722.00;;;11.18;83.13
20930;BME280;21895;47.072;15.132;2023-04-24T00:09:00;95725.00;;;11.22;82.81
20930;BME280;21895;47.072;15.132;2023-04-24T00:11:27;95715.00;;;11.24;82.61
20930;BME280;21895;47.072;15.132;2023-04-24T00:13:54;95704.00;;;11.10;82.48
20930;BME280;21895;47.072;15.132;2023-04-24T00:16:21;95703.00;;;11.02;82.81
20930;BME280;21895;47.072;15.132;2023-04-24T00:18:48;95702.00;;;11.04;82.85
20930;BME280;21895;47.072;15.132;2023-04-24T00:21:15;95692.00;;;11.05;83.14
20930;BME280;21895;47.072;15.132;2023-04-24T00:23:45;95691.00;;;10.92;82.80
20930;BME280;21895;47.072;15.132;2023-04-24T00:26:11;95699.00;;;10.87;83.16
20930;BME280;21895;47.072;15.132;2023-04-24T00:28:38;95698.00;;;10.81;83.81
20930;BME280;21895;47.072;15.132;2023-04-24T00:31:04;95691.00;;;10.89;83.70
20930;BME280;21895;47.072;15.132;2023-04-24T00:33:31;95706.00;;;10.95;83.22
20930;BME280;21895;47.072;15.132;2023-04-24T00:35:57;95703.00;;;10.91;82.88
20930;BME280;21895;47.072;15.132;2023-04-24T00:38:24;95703.00;;;10.76;83.79
20930;BME280;21895;47.072;15.132;2023-04-24T00:40:50;95699.00;;;10.77;83.51
20930;BME280;21895;47.072;15.132;2023-04-24T00:43:17;95690.00;;;10.83;82.93
20930;BME280;21895;47.072;15.132;2023-04-24T00:45:44;95697.00;;;10.88;82.77
20930;BME280;21895;47.072;15.132;2023-04-24T00:48:11;95692.00;;;10.84;83.03
20930;BME280;21895;47.072;15.132;2023-04-24T00:50:39;95690.00;;;10.88;83.79
20930;BME280;21895;47.072;15.132;2023-04-24T00:53:05;95697.00;;;10.96;83.71
20930;BME280;21895;47.072;15.132;2023-04-24T00:55:32;95694.00;;;10.95;83.15
20930;BME280;21895;47.072;15.132;2023-04-24T00:57:59;95694.00;;;10.92;82.67
20930;BME280;21895;47.072;15.132;2023-04-24T01:00:26;95694.00;;;10.82;83.07
20930;BME280;21895;47.072;15.132;2023-04-24T01:02:53;95691.00;;;10.75;82.40
20930;BME280;21895;47.072;15.132;2023-04-24T01:05:19;95693.00;;;10.77;83.26
20930;BME280;21895;47.072;15.132;2023-04-24T01:07:47;95688.00;;;10.80;83.54
20930;BME280;21895;47.072;15.132;2023-04-24T01:10:18;95696.00;;;10.71;84.70
20930;BME280;21895;47.072;15.132;2023-04-24T01:12:46;95690.00;;;10.85;84.70
20930;BME280;21895;47.072;15.132;2023-04-24T01:15:13;95693.00;;;10.78;84.28
20930;BME280;21895;47.072;15.132;2023-04-24T01:17:40;95681.00;;;10.76;83.96
20930;BME280;21895;47.072;15.132;2023-04-24T01:20:08;95692.00;;;10.73;83.59
20930;BME280;21895;47.072;15.132;2023-04-24T01:22:35;95688.00;;;10.70;83.77
20930;BME280;21895;47.072;15.132;2023-04-24T01:25:02;95683.00;;;10.53;83.08
20930;BME280;21895;47.072;15.132;2023-04-24T01:27:29;95680.00;;;10.66;82.67
20930;BME280;21895;47.072;15.132;2023-04-24T01:29:56;95677.00;;;10.63;82.84
20930;BME280;21895;47.072;15.132;2023-04-24T01:32:23;95689.00;;;10.57;83.02
20930;BME280;21895;47.072;15.132;2023-04-24T01:34:51;95686.00;;;10.58;83.21
20930;BME280;21895;47.072;15.132;2023-04-24T01:37:17;95673.00;;;10.65;83.31
20930;BME280;21895;47.072;15.132;2023-04-24T01:39:44;95678.00;;;10.55;83.82
20930;BME280;21895;47.072;15.132;2023-04-24T01:42:12;95672.00;;;10.44;83.80
20930;BME280;21895;47.072;15.132;2023-04-24T01:44:39;95682.00;;;10.46;83.28
20930;BME280;21895;47.072;15.132;2023-04-24T01:47:07;95675.00;;;10.65;80.66
20930;BME280;21895;47.072;15.132;2023-04-24T01:49:34;95675.00;;;10.45;81.28
20930;BME280;21895;47.072;15.132;2023-04-24T01:52:00;95671.00;;;10.32;82.34
20930;BME280;21895;47.072;15.132;2023-04-24T01:54:27;95665.00;;;10.37;83.43
20930;BME280;21895;47.072;15.132;2023-04-24T01:56:53;95676.00;;;10.37;84.13
20930;BME280;21895;47.072;15.132;2023-04-24T01:59:21;95670.00;;;10.47;84.45
20930;BME280;21895;47.072;15.132;2023-04-24T02:01:49;95673.00;;;10.38;84.22
20930;BME280;21895;47.072;15.132;2023-04-24T02:04:16;95673.00;;;10.47;84.13
20930;BME280;21895;47.072;15.132;2023-04-24T02:06:42;95660.00;;;10.40;84.09
20930;BME280;21895;47.072;15.132;2023-04-24T02:09:09;95657.00;;;10.47;83.03
20930;BME280;21895;47.072;15.132;2023-04-24T02:11:36;95667.00;;;10.33;83.39
20930;BME280;21895;47.072;15.132;2023-04-24T02:14:03;95664.00;;;10.21;84.36
20930;BME280;21895;47.072;15.132;2023-04-24T02:16:29;95653.00;;;10.21;83.92
20930;BME280;21895;47.072;15.132;2023-04-24T02:18:58;95666.00;;;10.30;84.38
20930;BME280;21895;47.072;15.132;2023-04-24T02:21:24;95655.00;;;10.18;83.72
20930;BME280;21895;47.072;15.132;2023-04-24T02:23:51;95666.00;;;10.09;84.08
20930;BME280;21895;47.072;15.132;2023-04-24T02:26:18;95656.00;;;10.05;84.60
20930;BME280;21895;47.072;15.132;2023-04-24T02:28:44;95645.00;;;10.14;83.50
20930;BME280;21895;47.072;15.132;2023-04-24T02:31:11;95641.00;;;10.07;84.19
20930;BME280;21895;47.072;15.132;2023-04-24T02:33:37;95640.00;;;10.09;84.24
20930;BME280;21895;47.072;15.132;2023-04-24T02:36:04;95643.00;;;10.09;84.46
20930;BME280;21895;47.072;15.132;2023-04-24T02:38:31;95636.00;;;10.16;84.48
20930;BME280;21895;47.072;15.132;2023-04-24T02:40:57;95625.00;;;10.27;83.80
20930;BME280;21895;47.072;15.132;2023-04-24T02:43:23;95624.00;;;10.26;83.62
20930;BME280;21895;47.072;15.132;2023-04-24T02:45:50;95623.00;;;10.36;83.76
20930;BME280;21895;47.072;15.132;2023-04-24T02:48:17;95634.00;;;10.32;83.37
20930;BME280;21895;47.072;15.132;2023-04-24T02:50:43;95631.00;;;10.44;83.26
20930;BME280;21895;47.072;15.132;2023-04-24T02:53:10;95631.00;;;10.34;82.53
20930;BME280;21895;47.072;15.132;2023-04-24T02:55:36;95629.00;;;10.36;83.03
20930;BME280;21895;47.072;15.132;2023-04-24T02:58:03;95628.00;;;10.40;82.98
20930;BME280;21895;47.072;15.132;2023-04-24T03:00:29;95637.00;;;10.43;82.51
20930;BME280;21895;47.072;15.132;2023-04-24T03:02:56;95635.00;;;10.50;82.34
20930;BME280;21895;47.072;15.132;2023-04-24T03:05:23;95635.00;;;10.44;82.24
20930;BME280;21895;47.072;15.132;2023-04-24T03:07:49;95634.00;;;10.44;82.42
20930;BME280;21895;47.072;15.132;2023-04-24T03:10:18;95643.00;;;10.45;81.86
20930;BME280;21895;47.072;15.132;2023-04-24T03:12:45;95641.00;;;10.47;81.40
20930;BME280;21895;47.072;15.132;2023-04-24T03:15:12;95634.00;;;10.39;81.28
20930;BME280;21895;47.072;15.132;2023-04-24T03:17:38;95635.00;;;10.25;82.13
20930;BME280;21895;47.072;15.132;2023-04-24T03:20:06;95635.00;;;10.28;82.39
20930;BME280;21895;47.072;15.132;2023-04-24T03:22:34;95628.00;;;10.30;82.35
20930;BME280;21895;47.072;15.132;2023-04-24T03:25:01;95629.00;;;10.34;82.68
20930;BME280;21895;47.072;15.132;2023-04-24T03:27:28;95627.00;;;10.45;82.40
20930;BME280;21895;47.072;15.132;2023-04-24T03:29:54;95625.00;;;10.38;82.37
20930;BME280;21895;47.072;15.132;2023-04-24T03:32:23;95642.00;;;10.41;82.76
20930;BME280;21895;47.072;15.132;2023-04-24T03:34:50;95629.00;;;10.58;82.29
20930;BME280;21895;47.072;15.132;2023-04-24T03:37:17;95635.00;;;10.53;81.57
20930;BME280;21895;47.072;15.132;2023-04-24T03:39:43;95644.00;;;10.42;81.93
20930;BME280;21895;47.072;15.132;2023-04-24T03:42:10;95652.00;;;10.47;82.23
20930;BME280;21895;47.072;15.132;2023-04-24T03:44:37;95655.00;;;10.56;81.81
20930;BME280;21895;47.072;15.132;2023-04-24T03:47:03;95653.00;;;10.51;81.57
20930;BME280;21895;47.072;15.132;2023-04-24T03:49:30;95651.00;;;10.52;81.45
20930;BME280;21895;47.072;15.132;2023-04-24T03:51:56;95651.00;;;10.63;80.25
20930;BME280;21895;47.072;15.132;2023-04-24T03:54:23;95645.00;;;10.51;80.70
20930;BME280;21895;47.072;15.132;2023-04-24T03:56:49;95650.00;;;10.44;80.50
20930;BME280;21895;47.072;15.132;2023-04-24T03:59:16;95657.00;;;10.50;80.11
20930;BME280;21895;47.072;15.132;2023-04-24T04:01:42;95651.00;;;10.29;81.16
20930;BME280;21895;47.072;15.132;2023-04-24T04:04:10;95654.00;;;10.26;82.01
20930;BME280;21895;47.072;15.132;2023-04-24T04:06:37;95659.00;;;10.14;82.80
20930;BME280;21895;47.072;15.132;2023-04-24T04:09:03;95665.00;;;10.20;83.01
20930;BME280;21895;47.072;15.132;2023-04-24T04:11:31;95664.00;;;10.23;82.78
20930;BME280;21895;47.072;15.132;2023-04-24T04:13:57;95658.00;;;10.39;82.36
20930;BME280;21895;47.072;15.132;2023-04-24T04:16:24;95654.00;;;10.35;82.27
20930;BME280;21895;47.072;15.132;2023-04-24T04:18:50;95657.00;;;10.43;82.02
20930;BME280;21895;47.072;15.132;2023-04-24T04:21:17;95657.00;;;10.43;82.18
20930;BME280;21895;47.072;15.132;2023-04-24T04:23:43;95652.00;;;10.43;82.74
20930;BME280;21895;47.072;15.132;2023-04-24T04:26:11;95661.00;;;10.49;82.50
20930;BME280;21895;47.072;15.132;2023-04-24T04:28:39;95657.00;;;10.53;82.60
20930;BME280;21895;47.072;15.132;2023-04-24T04:31:05;95663.00;;;10.56;82.19
20930;BME280;21895;47.072;15.132;2023-04-24T04:33:34;95662.00;;;10.65;82.08
20930;BME280;21895;47.072;15.132;2023-04-24T04:36:02;95660.00;;;10.78;81.46
20930;BME280;21895;47.072;15.132;2023-04-24T04:38:30;95653.00;;;10.75;81.42
20930;BME280;21895;47.072;15.132;2023-04-24T04:40:56;95650.00;;;10.90;80.56
20930;BME280;21895;47.072;15.132;2023-04-24T04:43:24;95654.00;;;10.97;79.40
20930;BME280;21895;47.072;15.132;2023-04-24T04:45:51;95656.00;;;10.83;80.23
20930;BME280;21895;47.072;15.132;2023-04-24T04:48:18;95650.00;;;10.69;81.29
20930;BME280;21895;47.072;15.132;2023-04-24T04:50:44;95655.00;;;10.78;81.77
20930;BME280;21895;47.072;15.132;2023-04-24T04:53:11;95651.00;;;10.90;81.19
20930;BME280;21895;47.072;15.132;2023-04-24T04:55:38;95655.00;;;10.91;81.09
20930;BME280;21895;47.072;15.132;2023-04-24T04:58:04;95659.00;;;10.89;81.33
20930;BME280;21895;47.072;15.132;2023-04-24T05:00:31;95661.00;;;10.97;81.04
20930;BME280;21895;47.072;15.132;2023-04-24T05:03:02;95668.00;;;10.98;81.13
20930;BME280;21895;47.072;15.132;2023-04-24T05:05:45;95667.00;;;11.10;81.11
20930;BME280;21895;47.072;15.132;2023-04-24T05:08:12;95668.00;;;11.18;80.52
20930;BME280;21895;47.072;15.132;2023-04-24T05:10:53;95667.00;;;11.38;78.88
20930;BME280;21895;47.072;15.132;2023-04-24T05:13:20;95670.00;;;11.35;78.67
20930;BME280;21895;47.072;15.132;2023-04-24T05:16:02;95673.00;;;11.31;78.78
20930;BME280;21895;47.072;15.132;2023-04-24T05:18:28;95681.00;;;11.23;79.47
20930;BME280;21895;47.072;15.132;2023-04-24T05:20:55;95680.00;;;11.29;79.61
20930;BME280;21895;47.072;15.132;2023-04-24T05:23:21;95674.00;;;11.31;80.05
20930;BME280;21895;47.072;15.132;2023-04-24T05:25:48;95677.00;;;11.27;80.06
20930;BME280;21895;47.072;15.132;2023-04-24T05:28:14;95671.00;;;11.37;80.25
20930;BME280;21895;47.072;15.132;2023-04-24T05:30:41;95666.00;;;11.41;80.12
20930;BME280;21895;47.072;15.132;2023-04-24T05:33:08;95674.00;;;11.49;80.39
20930;BME280;21895;47.072;15.132;2023-04-24T05:35:35;95673.00;;;11.62;79.80
20930;BME280;21895;47.072;15.132;2023-04-24T05:38:01;95668.00;;;11.79;79.25
20930;BME280;21895;47.072;15.132;2023-04-24T05:40:28;95675.00;;;11.96;78.62
20930;BME280;21895;47.072;15.132;2023-04-24T05:42:54;95671.00;;;12.07;78.41
20930;BME280;21895;47.072;15.132;2023-04-24T05:45:21;95670.00;;;12.18;78.66
20930;BME280;21895;47.072;15.132;2023-04-24T05:47:47;95666.00;;;12.34;78.45
20930;BME280;21895;47.072;15.132;2023-04-24T05:50:14;95672.00;;;12.53;77.56
20930;BME280;21895;47.072;15.132;2023-04-24T05:52:41;95675.00;;;12.59;77.02
20930;BME280;21895;47.072;15.132;2023-04-24T05:55:08;95673.00;;;12.40;77.50
20930;BME280;21895;47.072;15.132;2023-04-24T05:57:34;95668.00;;;12.37;77.57
20930;BME280;21895;47.072;15.132;2023-04-24T06:00:01;95671.00;;;12.49;76.84
20930;BME280;21895;47.072;15.132;2023-04-24T06:02:27;95678.00;;;12.43;77.23
20930;BME280;21895;47.072;15.132;2023-04-24T06:04:59;95674.00;;;12.29;78.05
20930;BME280;21895;47.072;15.132;2023-04-24T06:07:26;95681.00;;;12.22;78.84
20930;BME280;21895;47.072;15.132;2023-04-24T06:09:52;95688.00;;;12.22;79.06
20930;BME280;21895;47.072;15.132;2023-04-24T06:12:19;95688.00;;;12.33;79.34
20930;BME280;21895;47.072;15.132;2023-04-24T06:14:45;95688.00;;;12.36;78.91
20930;BME280;21895;47.072;15.132;2023-04-24T06:17:13;95690.00;;;12.27;79.03
20930;BME280;21895;47.072;15.132;2023-04-24T06:19:40;95691.00;;;12.21;79.72
20930;BME280;21895;47.072;15.132;2023-04-24T06:22:07;95692.00;;;12.22;79.68
20930;BME280;21895;47.072;15.132;2023-04-24T06:24:36;95690.00;;;12.15;79.93
20930;BME280;21895;47.072;15.132;2023-04-24T06:27:03;95700.00;;;12.16;80.04
20930;BME280;21895;47.072;15.132;2023-04-24T06:29:29;95703.00;;;12.23;80.18
20930;BME280;21895;47.072;15.132;2023-04-24T06:31:56;95707.00;;;12.19;79.78
20930;BME280;21895;47.072;15.132;2023-04-24T06:34:22;95701.00;;;12.15;80.28
20930;BME280;21895;47.072;15.132;2023-04-24T06:36:49;95701.00;;;12.21;80.25
20930;BME280;21895;47.072;15.132;2023-04-24T06:39:15;95703.00;;;12.32;79.28
20930;BME280;21895;47.072;15.132;2023-04-24T06:41:42;95706.00;;;12.29;79.70
20930;BME280;21895;47.072;15.132;2023-04-24T06:44:09;95706.00;;;12.40;79.19
20930;BME280;21895;47.072;15.132;2023-04-24T06:46:35;95702.00;;;12.33;78.79
20930;BME280;21895;47.072;15.132;2023-04-24T06:49:02;95703.00;;;12.44;78.74
20930;BME280;21895;47.072;15.132;2023-04-24T06:51:28;95700.00;;;12.42;79.27
20930;BME280;21895;47.072;15.132;2023-04-24T06:53:55;95710.00;;;12.47;79.68
20930;BME280;21895;47.072;15.132;2023-04-24T06:56:25;95706.00;;;12.49;79.46
20930;BME280;21895;47.072;15.132;2023-04-24T06:58:51;95706.00;;;12.41;79.99
20930;BME280;21895;47.072;15.132;2023-04-24T07:01:18;95705.00;;;12.37;80.13
20930;BME280;21895;47.072;15.132;2023-04-24T07:03:45;95708.00;;;12.35;80.36
20930;BME280;21895;47.072;15.132;2023-04-24T07:06:12;95714.00;;;12.36;79.95
20930;BME280;21895;47.072;15.132;2023-04-24T07:08:39;95716.00;;;12.40;79.92
20930;BME280;21895;47.072;15.132;2023-04-24T07:11:05;95714.00;;;12.39;80.24
20930;BME280;21895;47.072;15.132;2023-04-24T07:13:32;95712.00;;;12.41;79.83
20930;BME280;21895;47.072;15.132;2023-04-24T07:15:58;95710.00;;;12.40;80.12
20930;BME280;21895;47.072;15.132;2023-04-24T07:18:25;95715.00;;;12.45;80.45
20930;BME280;21895;47.072;15.132;2023-04-24T07:20:52;95712.00;;;12.48;80.42
20930;BME280;21895;47.072;15.132;2023-04-24T07:23:19;95714.00;;;12.49;80.94
20930;BME280;21895;47.072;15.132;2023-04-24T07:25:46;95715.00;;;12.52;81.07
20930;BME280;21895;47.072;15.132;2023-04-24T07:28:13;95717.00;;;12.65;80.55
20930;BME280;21895;47.072;15.132;2023-04-24T07:30:39;95726.00;;;12.69;80.62
20930;BME280;21895;47.072;15.132;2023-04-24T07:33:06;95732.00;;;12.66;80.67
20930;BME280;21895;47.072;15.132;2023-04-24T07:35:33;95731.00;;;12.72;80.89
20930;BME280;21895;47.072;15.132;2023-04-24T07:38:00;95737.00;;;12.74;80.99
20930;BME280;21895;47.072;15.132;2023-04-24T07:40:26;95731.00;;;12.77;81.36
20930;BME280;21895;47.072;15.132;2023-04-24T07:42:53;95743.00;;;12.81;80.95
20930;BME280;21895;47.072;15.132;2023-04-24T07:45:19;95738.00;;;12.81;80.49
20930;BME280;21895;47.072;15.132;2023-04-24T07:47:46;95742.00;;;12.76;81.43
20930;BME280;21895;47.072;15.132;2023-04-24T07:50:13;95741.00;;;12.73;81.67
20930;BME280;21895;47.072;15.132;2023-04-24T07:52:39;95752.00;;;12.99;81.27
20930;BME280;21895;47.072;15.132;2023-04-24T07:55:06;95753.00;;;13.00;81.19
20930;BME280;21895;47.072;15.132;2023-04-24T07:57:33;95758.00;;;13.01;81.48
20930;BME280;21895;47.072;15.132;2023-04-24T07:59:59;95752.00;;;13.01;81.29
20930;BME280;21895;47.072;15.132;2023-04-24T08:02:26;95757.00;;;13.04;80.94
20930;BME280;21895;47.072;15.132;2023-04-24T08:04:53;95756.00;;;13.01;81.12
20930;BME280;21895;47.072;15.132;2023-04-24T08:07:20;95761.00;;;13.12;80.90
20930;BME280;21895;47.072;15.132;2023-04-24T08:09:47;95765.00;;;13.08;81.00
20930;BME280;21895;47.072;15.132;2023-04-24T08:12:14;95763.00;;;13.16;80.77
20930;BME280;21895;47.072;15.132;2023-04-24T08:14:40;95759.00;;;13.19;80.73
20930;BME280;21895;47.072;15.132;2023-04-24T08:17:07;95760.00;;;13.21;80.70
20930;BME280;21895;47.072;15.132;2023-04-24T08:19:34;95767.00;;;13.13;80.98
20930;BME280;21895;47.072;15.132;2023-04-24T08:22:01;95768.00;;;13.02;81.48
20930;BME280;21895;47.072;15.132;2023-04-24T08:24:27;95764.00;;;13.01;81.59
20930;BME280;21895;47.072;15.132;2023-04-24T08:26:54;95765.00;;;13.27;80.35
20930;BME280;21895;47.072;15.132;2023-04-24T08:29:22;95767.00;;;13.14;81.02
20930;BME280;21895;47.072;15.132;2023-04-24T08:31:49;95765.00;;;13.08;81.38
20930;BME280;21895;47.072;15.132;2023-04-24T08:34:15;95776.00;;;13.07;82.05
20930;BME280;21895;47.072;15.132;2023-04-24T08:36:42;95776.00;;;13.02;82.65
20930;BME280;21895;47.072;15.132;2023-04-24T08:39:14;95779.00;;;13.11;82.38
20930;BME280;21895;47.072;15.132;2023-04-24T08:41:44;95777.00;;;13.06;82.61
20930;BME280;21895;47.072;15.132;2023-04-24T08:44:12;95781.00;;;12.99;83.15
20930;BME280;21895;47.072;15.132;2023-04-24T08:46:42;95784.00;;;13.07;83.75
20930;BME280;21895;47.072;15.132;2023-04-24T08:49:09;95785.00;;;13.11;83.42
20930;BME280;21895;47.072;15.132;2023-04-24T08:51:37;95782.00;;;13.25;82.58
20930;BME280;21895;47.072;15.132;2023-04-24T08:54:04;95790.00;;;13.35;81.86
20930;BME280;21895;47.072;15.132;2023-04-24T08:56:36;95784.00;;;13.45;81.03
20930;BME280;21895;47.072;15.132;2023-04-24T08:59:06;95788.00;;;13.47;80.60
20930;BME280;21895;47.072;15.132;2023-04-24T09:01:34;95795.00;;;13.58;80.46
20930;BME280;21895;47.072;15.132;2023-04-24T09:04:04;95797.00;;;13.72;79.95
20930;BME280;21895;47.072;15.132;2023-04-24T09:06:34;95794.00;;;13.82;79.73
20930;BME280;21895;47.072;15.132;2023-04-24T09:09:02;95802.00;;;13.92;79.77
20930;BME280;21895;47.072;15.132;2023-04-24T09:11:31;95792.00;;;14.06;79.68
20930;BME280;21895;47.072;15.132;2023-04-24T09:13:59;95792.00;;;14.25;79.78
20930;BME280;21895;47.072;15.132;2023-04-24T09:16:26;95796.00;;;14.37;79.12
20930;BME280;21895;47.072;15.132;2023-04-24T09:18:55;95791.00;;;14.65;78.34
20930;BME280;21895;47.072;15.132;2023-04-24T09:21:22;95781.00;;;14.93;77.00
20930;BME280;21895;47.072;15.132;2023-04-24T09:24:05;95785.00;;;15.16;76.30
20930;BME280;21895;47.072;15.132;2023-04-24T09:26:35;95792.00;;;15.24;76.10
20930;BME280;21895;47.072;15.132;2023-04-24T09:29:03;95794.00;;;15.51;75.07
20930;BME280;21895;47.072;15.132;2023-04-24T09:31:31;95793.00;;;15.28;76.29
20930;BME280;21895;47.072;15.132;2023-04-24T09:34:04;95793.00;;;15.34;75.40
20930;BME280;21895;47.072;15.132;2023-04-24T09:36:39;95786.00;;;15.18;75.61
20930;BME280;21895;47.072;15.132;2023-04-24T09:39:13;95800.00;;;15.44;75.10
20930;BME280;21895;47.072;15.132;2023-04-24T09:41:54;95799.00;;;15.45;74.66
20930;BME280;21895;47.072;15.132;2023-04-24T09:44:26;95790.00;;;15.40;74.98
20930;BME280;21895;47.072;15.132;2023-04-24T09:46:59;95796.00;;;15.43;75.36
20930;BME280;21895;47.072;15.132;2023-04-24T09:49:31;95797.00;;;15.56;75.21
20930;BME280;21895;47.072;15.132;2023-04-24T09:52:10;95789.00;;;15.77;74.16
20930;BME280;21895;47.072;15.132;2023-04-24T09:54:37;95791.00;;;15.84;73.43
20930;BME280;21895;47.072;15.132;2023-04-24T09:57:06;95789.00;;;15.92;73.72
20930;BME280;21895;47.072;15.132;2023-04-24T09:59:33;95787.00;;;16.06;73.18
20930;BME280;21895;47.072;15.132;2023-04-24T10:02:16;95779.00;;;16.05;73.07
20930;BME280;21895;47.072;15.132;2023-04-24T10:04:57;95780.00;;;16.24;72.58
20930;BME280;21895;47.072;15.132;2023-04-24T10:07:28;95783.00;;;16.36;72.16
20930;BME280;21895;47.072;15.132;2023-04-24T10:09:55;95779.00;;;16.42;71.67
20930;BME280;21895;47.072;15.132;2023-04-24T10:12:22;95780.00;;;16.57;71.12
20930;BME280;21895;47.072;15.132;2023-04-24T10:14:50;95775.00;;;16.63;69.71
20930;BME280;21895;47.072;15.132;2023-04-24T10:17:18;95780.00;;;16.77;68.87
20930;BME280;21895;47.072;15.132;2023-04-24T10:19:47;95781.00;;;16.88;69.02
20930;BME280;21895;47.072;15.132;2023-04-24T10:22:15;95776.00;;;16.95;68.36
20930;BME280;21895;47.072;15.132;2023-04-24T10:24:45;95777.00;;;17.02;67.85
20930;BME280;21895;47.072;15.132;2023-04-24T10:27:13;95773.00;;;17.03;66.70
20930;BME280;21895;47.072;15.132;2023-04-24T10:29:43;95773.00;;;17.09;66.72
20930;BME280;21895;47.072;15.132;2023-04-24T10:32:10;95764.00;;;17.11;65.53
20930;BME280;21895;47.072;15.132;2023-04-24T10:34:37;95766.00;;;17.35;65.36
20930;BME280;21895;47.072;15.132;2023-04-24T10:37:04;95764.00;;;17.32;65.14
20930;BME280;21895;47.072;15.132;2023-04-24T10:39:31;95768.00;;;17.28;64.03
20930;BME280;21895;47.072;15.132;2023-04-24T10:41:59;95765.00;;;17.41;63.40
20930;BME280;21895;47.072;15.132;2023-04-24T10:44:35;95763.00;;;17.55;63.84
20930;BME280;21895;47.072;15.132;2023-04-24T10:47:02;95765.00;;;17.60;62.85
20930;BME280;21895;47.072;15.132;2023-04-24T10:49:31;95766.00;;;17.83;61.13
20930;BME280;21895;47.072;15.132;2023-04-24T10:52:04;95763.00;;;17.87;60.83
20930;BME280;21895;47.072;15.132;2023-04-24T10:54:49;95766.00;;;17.85;60.17
20930;BME280;21895;47.072;15.132;2023-04-24T10:57:34;95757.00;;;17.98;59.51
20930;BME280;21895;47.072;15.132;2023-04-24T11:00:20;95760.00;;;18.22;59.63
20930;BME280;21895;47.072;15.132;2023-04-24T11:02:48;95755.00;;;18.31;60.10
20930;BME280;21895;47.072;15.132;2023-04-24T11:05:18;95748.00;;;18.35;59.02
20930;BME280;21895;47.072;15.132;2023-04-24T11:08:25;95749.00;;;18.40;58.73
20930;BME280;21895;47.072;15.132;2023-04-24T11:11:02;95751.00;;;18.48;58.99
20930;BME280;21895;47.072;15.132;2023-04-24T11:14:03;95745.00;;;18.44;59.01
20930;BME280;21895;47.072;15.132;2023-04-24T11:16:54;95742.00;;;18.52;57.54
20930;BME280;21895;47.072;15.132;2023-04-24T11:19:25;95747.00;;;18.86;57.36
20930;BME280;21895;47.072;15.132;2023-04-24T11:22:01;95740.00;;;19.01;54.93
20930;BME280;21895;47.072;15.132;2023-04-24T11:25:10;95740.00;;;19.03;56.07
20930;BME280;21895;47.072;15.132;2023-04-24T11:27:44;95744.00;;;18.95;56.99
20930;BME280;21895;47.072;15.132;2023-04-24T11:30:19;95750.00;;;18.66;56.56
20930;BME280;21895;47.072;15.132;2023-04-24T11:32:51;95745.00;;;18.51;57.93
20930;BME280;21895;47.072;15.132;2023-04-24T11:35:21;95752.00;;;18.81;55.75
20930;BME280;21895;47.072;15.132;2023-04-24T11:37:53;95752.00;;;18.55;56.53
20930;BME280;21895;47.072;15.132;2023-04-24T11:40:49;95751.00;;;18.51;57.74
20930;BME280;21895;47.072;15.132;2023-04-24T11:43:18;95751.00;;;18.72;57.33
20930;BME280;21895;47.072;15.132;2023-04-24T11:45:49;95753.00;;;18.84;56.94
20930;BME280;21895;47.072;15.132;2023-04-24T11:48:20;95756.00;;;18.82;55.43
20930;BME280;21895;47.072;15.132;2023-04-24T11:50:49;95752.00;;;18.84;56.22
20930;BME280;21895;47.072;15.132;2023-04-24T11:53:20;95744.00;;;18.68;56.79
20930;BME280;21895;47.072;15.132;2023-04-24T11:55:47;95758.00;;;18.73;54.23
20930;BME280;21895;47.072;15.132;2023-04-24T11:58:14;95752.00;;;18.60;55.61
20930;BME280;21895;47.072;15.132;2023-04-24T12:00:40;95757.00;;;18.55;54.13
20930;BME280;21895;47.072;15.132;2023-04-24T12:03:11;95754.00;;;18.56;54.04
20930;BME280;21895;47.072;15.132;2023-04-24T12:05:39;95753.00;;;18.68;53.06
20930;BME280;21895;47.072;15.132;2023-04-24T12:08:06;95757.00;;;18.63;52.28
20930;BME280;21895;47.072;15.132;2023-04-24T12:10:34;95756.00;;;18.73;53.48
20930;BME280;21895;47.072;15.132;2023-04-24T12:13:01;95757.00;;;18.81;52.83
20930;BME280;21895;47.072;15.132;2023-04-24T12:15:28;95755.00;;;18.71;52.64
20930;BME280;21895;47.072;15.132;2023-04-24T12:17:56;95751.00;;;18.89;51.90
20930;BME280;21895;47.072;15.132;2023-04-24T12:20:29;95753.00;;;18.78;52.39
20930;BME280;21895;47.072;15.132;2023-04-24T12:22:58;95749.00;;;18.74;52.62
20930;BME280;21895;47.072;15.132;2023-04-24T12:25:28;95755.00;;;18.97;51.52
20930;BME280;21895;47.072;15.132;2023-04-24T12:28:15;95751.00;;;18.93;52.01
20930;BME280;21895;47.072;15.132;2023-04-24T12:30:46;95745.00;;;19.06;52.61
20930;BME280;21895;47.072;15.132;2023-04-24T12:33:21;95736.00;;;19.02;51.61
20930;BME280;21895;47.072;15.132;2023-04-24T12:35:58;95736.00;;;19.21;51.50
20930;BME280;21895;47.072;15.132;2023-04-24T12:38:27;95735.00;;;19.17;52.58
20930;BME280;21895;47.072;15.132;2023-04-24T12:41:07;95729.00;;;19.20;51.62
20930;BME280;21895;47.072;15.132;2023-04-24T12:43:35;95729.00;;;18.90;52.88
20930;BME280;21895;47.072;15.132;2023-04-24T12:46:02;95725.00;;;18.97;53.01
20930;BME280;21895;47.072;15.132;2023-04-24T12:48:29;95735.00;;;18.98;53.58
20930;BME280;21895;47.072;15.132;2023-04-24T12:50:59;95724.00;;;18.99;53.64
20930;BME280;21895;47.072;15.132;2023-04-24T12:53:29;95726.00;;;19.14;53.18
20930;BME280;21895;47.072;15.132;2023-04-24T12:55:57;95719.00;;;19.10;52.95
20930;BME280;21895;47.072;15.132;2023-04-24T12:58:24;95718.00;;;19.16;52.61